Time;durP1;ratioP1;P1;durP2;ratioP2;P2;SDS_P1;SDS_P2;PMS_P1;PMS_P2;Temp;Humidity;BMP_temperature;BMP_pressure;BME280_temperature;BME280_humidity;BME280_pressure;Samples;Min_cycle;Max_cycle;Signal;HPM_P1;HPM_P2
2022/12/26 00:00:27;;;;;;;4.45;2.30;;;5.80;99.90;;;;;;4973815;28;20125;-62
2022/12/26 00:02:53;;;;;;;2.38;2.13;;;5.80;99.90;;;;;;4978528;28;20042;-62
2022/12/26 00:05:20;;;;;;;;;;;5.80;99.90;;;;;;4974312;28;20369;-62
2022/12/26 00:07:47;;;;;;;2.47;1.60;;;5.90;99.90;;;;;;4990118;28;20220;-61
2022/12/26 00:10:14;;;;;;;6.97;1.90;;;6.00;99.90;;;;;;4992239;28;20228;-62
2022/12/26 00:12:40;;;;;;;;;;;6.10;99.90;;;;;;4974596;28;20064;-62
2022/12/26 00:15:07;;;;;;;3.63;1.60;;;6.10;99.90;;;;;;4975459;28;20311;-62
2022/12/26 00:17:35;;;;;;;5.53;2.20;;;6.20;99.90;;;;;;4974930;28;20034;-62
2022/12/26 00:20:02;;;;;;;2.85;2.05;;;6.20;99.90;;;;;;4974972;28;20046;-63
2022/12/26 00:22:29;;;;;;;2.33;1.83;;;6.20;99.90;;;;;;4974361;28;20101;-62
2022/12/26 00:24:55;;;;;;;5.07;1.95;;;6.20;99.90;;;;;;4976203;28;20048;-62
2022/12/26 00:27:22;;;;;;;;;;;6.20;99.90;;;;;;4975841;28;20579;-63
2022/12/26 00:29:49;;;;;;;2.85;1.83;;;6.20;99.90;;;;;;4988843;28;19951;-62
2022/12/26 00:32:16;;;;;;;5.65;1.95;;;6.20;99.90;;;;;;4977550;28;20385;-62
2022/12/26 00:34:42;;;;;;;5.97;2.30;;;6.20;99.90;;;;;;4972614;28;20669;-63
2022/12/26 00:37:09;;;;;;;;;;;6.20;99.90;;;;;;4978010;28;20817;-62
2022/12/26 00:39:36;;;;;;;3.72;2.28;;;6.20;99.90;;;;;;4978847;28;20327;-62
2022/12/26 00:42:02;;;;;;;;;;;6.20;99.90;;;;;;4977443;28;20038;-61
2022/12/26 00:44:29;;;;;;;2.95;2.08;;;6.20;99.90;;;;;;4971543;28;20267;-63
2022/12/26 00:46:56;;;;;;;4.00;1.70;;;6.20;99.90;;;;;;4969927;28;20054;-62
2022/12/26 00:49:23;;;;;;;2.35;1.90;;;6.20;99.90;;;;;;4971124;28;20050;-62
2022/12/26 00:51:50;;;;;;;;;;;6.30;99.90;;;;;;4977815;28;20050;-62
2022/12/26 00:54:17;;;;;;;4.55;2.45;;;6.30;99.90;;;;;;4972316;28;20419;-62
2022/12/26 00:56:43;;;;;;;;;;;6.30;99.90;;;;;;4972635;28;20238;-62
2022/12/26 00:59:10;;;;;;;5.45;2.70;;;6.40;99.90;;;;;;4976162;28;19925;-62
2022/12/26 01:01:37;;;;;;;2.53;1.80;;;6.40;99.90;;;;;;4972008;28;20044;-62
2022/12/26 01:04:04;;;;;;;1.70;1.52;;;6.50;99.90;;;;;;4972541;28;20426;-62
2022/12/26 01:06:31;;;;;;;4.75;2.15;;;6.50;99.90;;;;;;4974592;28;20568;-62
2022/12/26 01:08:58;;;;;;;;;;;6.60;99.90;;;;;;4971921;28;20575;-62
2022/12/26 01:11:41;;;;;;;2.72;2.08;;;6.70;99.90;;;;;;4973738;28;19930;-62
2022/12/26 01:14:14;;;;;;;4.35;2.35;;;6.60;99.90;;;;;;4971394;28;20050;-62
2022/12/26 01:16:42;;;;;;;3.05;2.13;;;6.50;99.90;;;;;;4970674;28;20053;-61
2022/12/26 01:19:10;;;;;;;5.05;2.00;;;6.40;99.90;;;;;;4971573;28;20042;-62
2022/12/26 01:21:38;;;;;;;2.63;1.88;;;6.30;99.90;;;;;;4975066;28;20514;-61
2022/12/26 01:24:05;;;;;;;2.67;2.10;;;6.30;99.90;;;;;;4974258;28;20046;-62
2022/12/26 01:26:33;;;;;;;2.78;1.88;;;6.30;99.90;;;;;;4972131;28;20073;-62
2022/12/26 01:29:00;;;;;;;;;;;6.40;99.90;;;;;;4972123;28;20112;-62
2022/12/26 01:31:26;;;;;;;1.95;1.85;;;6.40;99.90;;;;;;4973008;28;20024;-61
2022/12/26 01:33:53;;;;;;;;;;;6.50;99.90;;;;;;4972077;28;20131;-62
2022/12/26 01:36:20;;;;;;;1.63;1.48;;;6.60;99.90;;;;;;4973650;28;19936;-61
2022/12/26 01:38:46;;;;;;;;;;;6.70;99.90;;;;;;4972493;28;20057;-61
2022/12/26 01:41:18;;;;;;;3.63;1.75;;;6.80;99.90;;;;;;4973219;28;19965;-61
2022/12/26 01:44:04;;;;;;;6.18;1.90;;;6.80;99.90;;;;;;4975642;28;20140;-61
2022/12/26 01:46:46;;;;;;;3.20;1.90;;;6.90;99.90;;;;;;4974267;28;20311;-63
2022/12/26 01:49:36;;;;;;;2.05;1.83;;;7.00;99.90;;;;;;4971815;28;20532;-61
2022/12/26 01:52:08;;;;;;;3.90;1.83;;;7.10;99.90;;;;;;4970571;28;20351;-61
2022/12/26 01:54:37;;;;;;;3.75;2.47;;;7.10;99.90;;;;;;4973062;28;20107;-60
2022/12/26 01:57:19;;;;;;;3.38;2.38;;;7.10;99.90;;;;;;4969918;28;20050;-61
2022/12/26 01:59:47;;;;;;;3.72;2.05;;;7.10;99.90;;;;;;4972026;28;20070;-61
2022/12/26 02:02:15;;;;;;;6.28;2.17;;;7.10;99.90;;;;;;4976005;28;20042;-63
2022/12/26 02:07:36;;;;;;;2.53;1.90;;;7.10;99.90;;;;;;4968910;28;20583;-61
2022/12/26 02:10:08;;;;;;;3.92;2.05;;;7.20;99.90;;;;;;4973354;28;20057;-61
2022/12/26 02:12:35;;;;;;;7.85;2.38;;;7.20;99.90;;;;;;4971716;28;20042;-61
2022/12/26 02:15:12;;;;;;;4.28;1.90;;;7.20;99.90;;;;;;4973587;28;20042;-61
2022/12/26 02:17:39;;;;;;;5.63;2.22;;;7.20;99.90;;;;;;4973197;28;20408;-61
2022/12/26 02:20:23;;;;;;;2.55;1.95;;;7.20;99.90;;;;;;4972328;28;20065;-60
2022/12/26 02:23:03;;;;;;;6.40;2.30;;;7.30;99.90;;;;;;4969964;28;20105;-61
2022/12/26 02:25:52;;;;;;;2.53;2.03;;;7.30;99.90;;;;;;4971481;28;20481;-61
2022/12/26 02:28:39;;;;;;;5.15;2.17;;;7.30;99.90;;;;;;4971752;28;20477;-61
2022/12/26 02:31:16;;;;;;;2.25;2.05;;;7.30;99.90;;;;;;4970934;28;20511;-61
2022/12/26 02:34:03;;;;;;;2.15;1.83;;;7.30;99.90;;;;;;4972238;28;20483;-61
2022/12/26 02:36:48;;;;;;;3.58;2.33;;;7.20;99.90;;;;;;4970516;28;20529;-61
2022/12/26 02:39:37;;;;;;;3.47;2.28;;;7.10;99.90;;;;;;4975487;28;20083;-61
2022/12/26 02:42:30;;;;;;;3.58;2.10;;;6.90;99.90;;;;;;4973036;28;20053;-61
2022/12/26 02:48:12;;;;;;;3.67;2.00;;;6.80;99.90;;;;;;4968212;28;20476;-61
2022/12/26 03:14:51;;;;;;;2.20;1.83;;;6.80;99.90;;;;;;4971503;28;20074;-61
2022/12/26 03:17:29;;;;;;;5.70;2.35;;;6.80;99.90;;;;;;4973894;28;20069;-60
2022/12/26 03:20:02;;;;;;;7.57;2.60;;;6.80;99.90;;;;;;4972770;28;20141;-61
2022/12/26 03:22:48;;;;;;;4.70;2.65;;;6.70;99.90;;;;;;4989562;28;20504;-62
2022/12/26 03:28:12;;;;;;;4.00;2.03;;;6.80;99.90;;;;;;4976049;28;20058;-61
2022/12/26 03:30:49;;;;;;;2.55;2.20;;;6.80;99.90;;;;;;4973861;28;20069;-61
2022/12/26 03:36:10;;;;;;;7.47;2.33;;;6.70;99.90;;;;;;4975660;28;20046;-61
2022/12/26 03:38:56;;;;;;;3.33;1.95;;;6.70;99.90;;;;;;4975000;28;20510;-61
2022/12/26 04:20:36;;;;;;;2.17;1.98;;;6.40;99.90;;;;;;4977204;28;20161;-62
2022/12/26 04:46:19;;;;;;;8.18;2.78;;;5.70;99.90;;;;;;4973213;28;20416;-62
2022/12/26 04:51:34;;;;;;;4.68;2.45;;;5.70;99.90;;;;;;4976424;28;20571;-62
2022/12/26 04:54:01;;;;;;;4.55;2.30;;;5.70;99.90;;;;;;4988408;28;20046;-62
2022/12/26 04:56:28;;;;;;;;;;;5.70;99.90;;;;;;4973414;28;20131;-63
2022/12/26 04:58:55;;;;;;;5.80;3.23;;;5.70;99.90;;;;;;4972548;28;20028;-61
2022/12/26 05:09:50;;;;;;;8.10;2.93;;;5.80;99.90;;;;;;4976504;28;20322;-63
2022/12/26 05:12:16;;;;;;;4.18;3.63;;;5.90;99.90;;;;;;4971822;28;20390;-62
2022/12/26 05:14:43;;;;;;;4.10;3.05;;;5.90;99.90;;;;;;4969919;28;20050;-61
2022/12/26 05:31:09;;;;;;;3.58;2.47;;;5.80;99.90;;;;;;4970655;28;20074;-61
2022/12/26 05:36:24;;;;;;;6.53;2.63;;;5.80;99.90;;;;;;4974964;28;20050;-62
2022/12/26 05:38:51;;;;;;;4.68;3.00;;;5.80;99.90;;;;;;4970781;28;20478;-62
2022/12/26 05:41:18;;;;;;;;;;;5.80;99.90;;;;;;4973666;28;20140;-62
2022/12/26 05:43:45;;;;;;;3.97;2.63;;;5.80;99.90;;;;;;4972171;28;20120;-61
2022/12/26 05:46:12;;;;;;;3.28;2.45;;;5.80;99.90;;;;;;4981434;28;20139;-61
2022/12/26 05:48:39;;;;;;;3.47;2.60;;;5.80;99.90;;;;;;4971531;28;20060;-62
2022/12/26 05:51:06;;;;;;;;;;;5.80;99.90;;;;;;4984641;28;20773;-61
2022/12/26 05:53:33;;;;;;;4.68;2.83;;;5.80;99.90;;;;;;4970305;28;19926;-62
2022/12/26 05:56:10;;;;;;;6.90;3.08;;;5.80;99.90;;;;;;4970726;28;20677;-62
2022/12/26 05:58:37;;;;;;;4.40;3.38;;;5.80;99.90;;;;;;4970692;28;20135;-61
2022/12/26 06:01:16;;;;;;;4.70;3.13;;;5.90;99.90;;;;;;4972230;28;20038;-60
2022/12/26 06:03:47;;;;;;;5.97;2.38;;;5.90;99.90;;;;;;4973207;28;20060;-62
2022/12/26 06:06:15;;;;;;;5.68;2.83;;;6.00;99.90;;;;;;4973859;28;20587;-61
2022/12/26 06:08:42;;;;;;;5.75;2.90;;;6.10;99.90;;;;;;4974456;28;20458;-60
2022/12/26 06:11:11;;;;;;;3.20;2.25;;;6.20;99.90;;;;;;4972230;28;20067;-61
2022/12/26 06:13:39;;;;;;;1.90;1.75;;;6.30;99.90;;;;;;4970675;28;20451;-61
2022/12/26 06:16:11;;;;;;;4.88;2.45;;;6.30;99.90;;;;;;4971191;28;20527;-60
2022/12/26 06:18:39;;;;;;;3.60;2.22;;;6.40;99.90;;;;;;4971754;28;20092;-61
2022/12/26 06:21:13;;;;;;;2.45;1.98;;;6.40;99.90;;;;;;4974448;28;20365;-61
2022/12/26 06:23:41;;;;;;;5.25;2.03;;;6.50;99.90;;;;;;4968844;28;20046;-62
2022/12/26 06:26:09;;;;;;;4.00;2.33;;;6.50;99.90;;;;;;4969932;28;20069;-62
2022/12/26 06:28:36;;;;;;;2.30;2.10;;;6.60;99.90;;;;;;4970258;28;20060;-61
2022/12/26 06:31:05;;;;;;;4.40;2.00;;;6.70;99.90;;;;;;4969534;28;20042;-60
2022/12/26 06:33:32;;;;;;;3.03;2.10;;;6.70;99.90;;;;;;4971552;28;20783;-62
2022/12/26 06:36:07;;;;;;;2.50;2.15;;;6.70;99.90;;;;;;4984659;28;20057;-61
2022/12/26 06:38:34;;;;;;;8.32;3.30;;;6.70;99.90;;;;;;4973032;28;20628;-60
2022/12/26 06:41:04;;;;;;;3.10;2.38;;;6.70;99.90;;;;;;4970107;28;20141;-62
2022/12/26 06:43:31;;;;;;;4.70;2.20;;;6.70;99.90;;;;;;4970881;28;20046;-62
2022/12/26 06:46:00;;;;;;;3.85;2.33;;;6.70;99.90;;;;;;4971407;28;20318;-62
2022/12/26 06:48:28;;;;;;;4.45;2.50;;;6.70;99.90;;;;;;4971154;28;20069;-62
2022/12/26 06:50:55;;;;;;;3.90;2.15;;;6.70;99.90;;;;;;4969778;28;20402;-62
2022/12/26 06:53:22;;;;;;;2.50;2.10;;;6.70;99.90;;;;;;4970693;28;20655;-50
2022/12/26 06:55:50;;;;;;;5.15;1.73;;;6.80;99.90;;;;;;4973033;28;20142;-50
2022/12/26 06:58:17;;;;;;;6.93;1.88;;;6.80;99.90;;;;;;4976192;28;20137;-52
2022/12/26 07:00:44;;;;;;;4.18;1.98;;;6.90;99.90;;;;;;4969894;28;20346;-53
2022/12/26 07:03:11;;;;;;;3.75;2.42;;;7.00;99.90;;;;;;4992935;28;20361;-51
2022/12/26 07:05:38;;;;;;;2.10;1.52;;;7.10;99.90;;;;;;4979307;28;20141;-53
2022/12/26 07:08:05;;;;;;;2.47;2.08;;;7.20;99.90;;;;;;4975384;28;20054;-53
2022/12/26 07:10:35;;;;;;;6.32;2.17;;;7.30;99.90;;;;;;4973149;28;20056;-54
2022/12/26 07:13:02;;;;;;;3.25;1.90;;;7.30;99.90;;;;;;4976485;28;20239;-50
2022/12/26 07:15:29;;;;;;;;;;;7.40;99.90;;;;;;4976507;28;20350;-53
2022/12/26 07:17:56;;;;;;;8.35;1.63;;;7.40;99.90;;;;;;4973127;28;20674;-54
2022/12/26 07:20:23;;;;;;;1.90;1.70;;;7.50;99.90;;;;;;4974404;28;20318;-53
2022/12/26 07:22:50;;;;;;;5.53;1.88;;;7.50;99.90;;;;;;4975862;28;20808;-53
2022/12/26 07:25:16;;;;;;;2.15;1.55;;;7.50;99.90;;;;;;4973498;28;20342;-50
2022/12/26 07:27:43;;;;;;;;;;;7.60;99.90;;;;;;4975942;28;20038;-50
2022/12/26 07:30:10;;;;;;;1.45;1.35;;;7.60;99.90;;;;;;4976733;28;19940;-53
2022/12/26 07:32:37;;;;;;;3.53;1.58;;;7.70;99.90;;;;;;4971049;28;20060;-53
2022/12/26 07:35:04;;;;;;;;;;;7.80;99.90;;;;;;4974497;28;20056;-52
2022/12/26 07:37:31;;;;;;;5.57;2.20;;;7.90;99.90;;;;;;4977280;28;20033;-53
2022/12/26 07:39:57;;;;;;;;;;;8.10;99.90;;;;;;4976788;28;20050;-53
2022/12/26 07:42:25;;;;;;;1.80;1.50;;;8.30;99.90;;;;;;4976270;28;20463;-53
2022/12/26 07:44:52;;;;;;;;;;;8.40;99.90;;;;;;4975764;28;20536;-53
2022/12/26 07:47:18;;;;;;;1.80;1.42;;;8.50;99.90;;;;;;4978958;28;19956;-54
2022/12/26 07:49:45;;;;;;;;;;;8.60;99.90;;;;;;4970483;28;20439;-52
2022/12/26 07:52:12;;;;;;;2.33;1.83;;;8.60;99.90;;;;;;4984547;28;19933;-54
2022/12/26 07:54:39;;;;;;;1.77;1.40;;;8.70;99.90;;;;;;4973207;28;20050;-51
2022/12/26 07:57:06;;;;;;;3.40;1.52;;;8.70;99.90;;;;;;4972643;28;20117;-54
2022/12/26 07:59:53;;;;;;;2.53;1.92;;;8.80;99.90;;;;;;4977512;28;20042;-52
2022/12/26 08:02:21;;;;;;;2.25;1.70;;;8.90;99.90;;;;;;4971689;28;20226;-52
2022/12/26 08:04:48;;;;;;;1.77;1.48;;;8.90;99.90;;;;;;4973699;28;20046;-52
2022/12/26 08:07:15;;;;;;;;;;;9.00;99.90;;;;;;4973648;28;20453;-52
2022/12/26 08:09:43;;;;;;;3.17;2.00;;;9.20;99.90;;;;;;4974107;28;20572;-52
2022/12/26 08:12:11;;;;;;;4.13;1.98;;;9.30;99.90;;;;;;4970959;28;20425;-51
2022/12/26 08:14:39;;;;;;;3.63;2.10;;;9.50;99.90;;;;;;4987389;28;20112;-50
2022/12/26 08:17:07;;;;;;;3.28;1.60;;;9.70;99.90;;;;;;4970695;28;20135;-51
2022/12/26 08:19:34;;;;;;;3.63;1.77;;;9.80;99.90;;;;;;4974755;28;20096;-49
2022/12/26 08:22:01;;;;;;;;;;;9.90;99.90;;;;;;4972692;28;20050;-53
2022/12/26 08:24:28;;;;;;;2.03;1.50;;;10.10;99.90;;;;;;4971571;28;19925;-51
2022/12/26 08:26:54;;;;;;;3.83;1.60;;;10.10;99.90;;;;;;4974232;28;20504;-50
2022/12/26 08:29:22;;;;;;;1.60;1.38;;;10.20;99.90;;;;;;4977373;28;20464;-53
2022/12/26 08:31:49;;;;;;;4.22;1.60;;;10.40;99.90;;;;;;4972063;28;20049;-52
2022/12/26 08:34:15;;;;;;;4.10;2.25;;;10.50;99.90;;;;;;4970631;28;20405;-48
2022/12/26 08:36:42;;;;;;;;;;;10.70;99.90;;;;;;4973024;28;20109;-49
2022/12/26 08:39:09;;;;;;;2.60;1.65;;;10.90;99.90;;;;;;4987923;28;19932;-48
2022/12/26 08:41:37;;;;;;;3.83;1.65;;;11.10;99.90;;;;;;4972103;28;20507;-50
2022/12/26 08:44:03;;;;;;;;;;;11.20;99.90;;;;;;4972486;28;20092;-54
2022/12/26 08:46:50;;;;;;;1.67;1.20;;;11.40;99.90;;;;;;4971248;28;19925;-49
2022/12/26 08:49:17;;;;;;;2.53;1.17;;;11.60;99.90;;;;;;4968735;28;20552;-50
2022/12/26 08:51:44;;;;;;;1.83;1.00;;;11.70;99.90;;;;;;4972006;28;20046;-50
2022/12/26 08:54:11;;;;;;;2.92;1.30;;;11.90;99.90;;;;;;4970611;28;20057;-53
2022/12/26 08:56:37;;;;;;;1.92;1.48;;;12.10;99.90;;;;;;4970336;28;20389;-56
2022/12/26 08:59:04;;;;;;;;;;;12.40;99.90;;;;;;4974068;28;20484;-55
2022/12/26 09:01:31;;;;;;;1.45;1.02;;;12.70;99.90;;;;;;4985652;28;20016;-52
2022/12/26 09:04:01;;;;;;;3.10;1.10;;;13.00;99.90;;;;;;4970495;28;20042;-50
2022/12/26 09:06:31;;;;;;;1.83;1.10;;;13.20;99.90;;;;;;4969284;28;20050;-51
2022/12/26 09:08:59;;;;;;;3.20;1.30;;;13.40;99.90;;;;;;4968640;28;20097;-49
2022/12/26 09:11:26;;;;;;;1.02;1.00;;;13.70;99.90;;;;;;4986531;28;20466;-54
2022/12/26 09:13:54;;;;;;;3.47;1.02;;;13.90;99.90;;;;;;4968644;28;20050;-54
2022/12/26 09:16:28;;;;;;;2.95;0.85;;;14.00;99.90;;;;;;4969974;28;20156;-56
2022/12/26 09:19:03;;;;;;;1.30;0.88;;;14.10;99.90;;;;;;4972694;28;20313;-49
2022/12/26 09:21:30;;;;;;;1.80;1.10;;;14.20;99.90;;;;;;4970604;28;20050;-53
2022/12/26 09:24:03;;;;;;;1.30;0.90;;;14.30;99.90;;;;;;4970936;28;20141;-51
2022/12/26 09:26:30;;;;;;;1.45;1.02;;;14.40;99.90;;;;;;4969354;28;20088;-59
2022/12/26 09:28:58;;;;;;;1.20;1.00;;;14.60;99.90;;;;;;4969256;28;20543;-53
2022/12/26 09:31:28;;;;;;;3.15;0.85;;;14.90;98.20;;;;;;4968269;28;20561;-51
2022/12/26 09:33:55;;;;;;;2.55;1.40;;;15.20;98.40;;;;;;4982100;28;20550;-51
2022/12/26 09:36:24;;;;;;;;;;;15.40;91.90;;;;;;4969513;28;20571;-52
2022/12/26 09:38:51;;;;;;;1.42;1.00;;;15.60;93.70;;;;;;4966425;28;20036;-53
2022/12/26 09:41:33;;;;;;;1.38;1.02;;;15.80;90.50;;;;;;4983903;28;20060;-54
2022/12/26 09:44:22;;;;;;;5.00;0.80;;;15.90;79.20;;;;;;4968983;28;20093;-52
2022/12/26 09:46:52;;;;;;;1.83;1.05;;;15.90;81.20;;;;;;4967876;28;20042;-53
2022/12/26 09:49:27;;;;;;;1.45;1.20;;;15.80;83.50;;;;;;4966481;28;20115;-53
2022/12/26 09:51:57;;;;;;;1.35;0.90;;;15.80;80.80;;;;;;4968121;28;20061;-52
2022/12/26 09:54:35;;;;;;;1.58;0.85;;;15.80;78.20;;;;;;4972106;28;20338;-53
2022/12/26 09:57:08;;;;;;;0.93;0.80;;;15.70;77.50;;;;;;4970779;28;20050;-52
2022/12/26 10:00:00;;;;;;;1.25;0.77;;;15.60;75.60;;;;;;4967299;28;20463;-53
2022/12/26 10:02:27;;;;;;;0.82;0.75;;;15.60;77.10;;;;;;4964829;28;20263;-52
2022/12/26 10:04:54;;;;;;;1.00;0.90;;;15.70;73.10;;;;;;4966356;28;20030;-53
2022/12/26 10:07:44;;;;;;;1.33;1.00;;;15.60;75.10;;;;;;4968274;28;20107;-54
2022/12/26 10:10:33;;;;;;;1.20;0.93;;;15.50;72.80;;;;;;4966898;28;20043;-55
2022/12/26 10:13:16;;;;;;;1.52;1.20;;;15.40;74.70;;;;;;4969371;28;20239;-53
2022/12/26 10:15:53;;;;;;;0.80;0.75;;;15.20;76.50;;;;;;4967706;28;20590;-55
2022/12/26 10:18:25;;;;;;;1.42;0.90;;;15.00;78.20;;;;;;4974246;28;20041;-67
2022/12/26 10:21:19;;;;;;;1.15;0.93;;;14.90;79.40;;;;;;4969662;28;20125;-53
2022/12/26 10:23:55;;;;;;;1.95;1.25;;;14.70;81.70;;;;;;4968927;28;20041;-53
2022/12/26 10:26:34;;;;;;;4.68;1.20;;;14.60;86.00;;;;;;4967504;28;20046;-52
2022/12/26 10:29:18;;;;;;;3.97;1.60;;;14.50;87.80;;;;;;4967030;28;20161;-53
2022/12/26 10:32:13;;;;;;;4.20;1.40;;;14.40;86.60;;;;;;4968062;28;20053;-53
2022/12/26 10:34:46;;;;;;;1.52;1.00;;;14.30;89.10;;;;;;4968535;28;20585;-58
2022/12/26 10:37:24;;;;;;;2.88;1.50;;;14.20;92.10;;;;;;4969463;28;20046;-54
2022/12/26 10:40:16;;;;;;;3.30;1.60;;;14.00;99.90;;;;;;4983047;28;20320;-53
2022/12/26 10:42:47;;;;;;;3.67;1.83;;;13.80;99.90;;;;;;4983708;28;20445;-53
2022/12/26 10:45:40;;;;;;;3.40;2.05;;;13.50;99.90;;;;;;4985016;28;20034;-52
2022/12/26 10:48:07;;;;;;;3.33;2.10;;;13.10;99.90;;;;;;4968548;28;20043;-51
2022/12/26 10:50:34;;;;;;;3.22;1.80;;;12.90;99.90;;;;;;4968558;28;20951;-54
2022/12/26 10:53:05;;;;;;;3.05;2.17;;;12.60;99.90;;;;;;4966402;28;20332;-51
2022/12/26 10:55:34;;;;;;;4.57;1.88;;;12.40;99.90;;;;;;4970906;28;20145;-53
2022/12/26 10:58:13;;;;;;;3.20;2.35;;;12.10;99.90;;;;;;4969789;28;20046;-53
2022/12/26 11:00:40;;;;;;;5.00;2.42;;;11.90;99.90;;;;;;4969472;28;20093;-53
2022/12/26 11:03:12;;;;;;;3.63;2.42;;;11.80;99.90;;;;;;4970995;28;20050;-55
2022/12/26 11:05:43;;;;;;;4.97;2.67;;;11.60;99.90;;;;;;4966993;28;20927;-54
2022/12/26 11:08:37;;;;;;;5.93;2.80;;;11.50;99.90;;;;;;4970722;28;20046;-54
2022/12/26 11:11:44;;;;;;;3.72;2.92;;;11.40;99.90;;;;;;4972178;28;20054;-53
2022/12/26 11:14:53;;;;;;;6.72;3.65;;;11.30;99.90;;;;;;4970133;28;20035;-53
2022/12/26 11:17:26;;;;;;;4.63;3.20;;;11.20;99.90;;;;;;4969774;28;20521;-53
2022/12/26 11:20:13;;;;;;;5.13;3.10;;;11.10;99.90;;;;;;4967881;28;20043;-53
2022/12/26 11:22:41;;;;;;;5.60;2.80;;;11.00;99.90;;;;;;4972728;28;20050;-53
2022/12/26 11:25:08;;;;;;;5.78;2.67;;;11.00;99.90;;;;;;4970526;28;20048;-53
2022/12/26 11:27:35;;;;;;;;;;;10.90;99.90;;;;;;4970841;28;20045;-52
2022/12/26 11:30:16;;;;;;;7.97;3.50;;;10.90;99.90;;;;;;4968666;28;19926;-53
2022/12/26 11:32:47;;;;;;;8.68;3.47;;;10.90;99.90;;;;;;4966124;28;20054;-57
2022/12/26 11:35:23;;;;;;;10.52;3.33;;;10.90;99.90;;;;;;4969787;28;20054;-54
2022/12/26 11:37:55;;;;;;;11.55;3.67;;;10.90;99.90;;;;;;4966998;28;20153;-54
2022/12/26 11:40:36;;;;;;;5.68;3.25;;;10.80;99.90;;;;;;4984619;28;20105;-51
2022/12/26 11:43:11;;;;;;;7.70;3.80;;;10.80;99.90;;;;;;4974256;28;20140;-54
2022/12/26 11:45:43;;;;;;;6.78;3.38;;;10.80;99.90;;;;;;4975144;28;20042;-55
2022/12/26 11:48:22;;;;;;;5.97;3.97;;;10.80;99.90;;;;;;4971718;28;20049;-54
2022/12/26 11:50:50;;;;;;;5.57;3.15;;;10.70;99.90;;;;;;4974320;28;20548;-55
2022/12/26 11:53:20;;;;;;;8.63;4.15;;;10.70;99.90;;;;;;4974871;28;20145;-51
2022/12/26 11:56:05;;;;;;;6.43;3.70;;;10.60;99.90;;;;;;4972151;28;20061;-55
2022/12/26 11:58:33;;;;;;;8.07;4.10;;;10.60;99.90;;;;;;4972304;28;20046;-54
2022/12/26 12:01:00;;;;;;;9.32;3.83;;;10.60;99.90;;;;;;4971561;28;20818;-53
2022/12/26 12:03:41;;;;;;;7.25;3.67;;;10.60;99.90;;;;;;4971989;28;20194;-55
2022/12/26 12:06:24;;;;;;;9.20;4.72;;;10.40;99.90;;;;;;4972294;28;20125;-54
2022/12/26 12:09:03;;;;;;;7.97;3.47;;;10.40;99.90;;;;;;4972006;28;20043;-54
2022/12/26 12:11:49;;;;;;;9.15;4.47;;;10.30;99.90;;;;;;4972078;28;20315;-54
2022/12/26 12:14:48;;;;;;;6.53;4.65;;;10.30;99.90;;;;;;4970525;28;20050;-53
2022/12/26 12:17:28;;;;;;;8.25;4.20;;;10.20;99.90;;;;;;4974437;28;20045;-54
2022/12/26 12:20:00;;;;;;;11.02;5.63;;;10.20;99.90;;;;;;4972420;28;20531;-54
2022/12/26 12:22:39;;;;;;;7.50;4.32;;;10.20;99.90;;;;;;4975726;28;20046;-52
2022/12/26 12:25:34;;;;;;;6.88;4.25;;;10.10;99.90;;;;;;4977646;28;20148;-55
2022/12/26 12:28:16;;;;;;;9.80;4.35;;;10.10;99.90;;;;;;4973569;28;20840;-54
2022/12/26 12:31:06;;;;;;;7.30;4.18;;;10.00;99.90;;;;;;4974348;28;20752;-53
2022/12/26 12:33:43;;;;;;;6.00;5.13;;;10.00;99.90;;;;;;4974532;28;20076;-51
2022/12/26 12:36:17;;;;;;;6.55;5.22;;;9.90;99.90;;;;;;4972802;28;20065;-52
2022/12/26 12:38:54;;;;;;;10.07;4.38;;;9.80;99.90;;;;;;4971741;28;20553;-53
2022/12/26 12:41:28;;;;;;;8.98;4.63;;;9.80;99.90;;;;;;4968655;28;20046;-51
2022/12/26 12:44:07;;;;;;;6.75;4.40;;;9.70;99.90;;;;;;4972087;28;20701;-52
2022/12/26 12:46:40;;;;;;;11.07;5.18;;;9.60;99.90;;;;;;4971717;28;20050;-55
2022/12/26 12:49:23;;;;;;;10.27;5.25;;;9.60;99.90;;;;;;4966995;28;20038;-53
2022/12/26 12:52:37;;;;;;;12.57;6.22;;;9.60;99.90;;;;;;4968224;28;20081;-51
2022/12/26 12:55:41;;;;;;;9.10;5.07;;;9.50;99.90;;;;;;4969756;28;20064;-51
2022/12/26 12:58:27;;;;;;;7.88;4.68;;;9.50;99.90;;;;;;4968203;28;20144;-50
2022/12/26 13:01:19;;;;;;;7.65;5.28;;;9.40;99.90;;;;;;4968642;28;20062;-51
2022/12/26 13:03:58;;;;;;;9.25;5.45;;;9.40;99.90;;;;;;4969211;28;20813;-48
2022/12/26 13:06:36;;;;;;;11.48;5.18;;;9.40;99.90;;;;;;4968485;28;20074;-48
2022/12/26 13:09:12;;;;;;;9.15;4.38;;;9.30;99.90;;;;;;4986507;28;20049;-48
2022/12/26 13:11:47;;;;;;;4.18;2.47;;;9.30;99.90;;;;;;4969477;28;20277;-49
2022/12/26 13:14:22;;;;;;;4.15;1.85;;;9.20;99.90;;;;;;4969132;28;20157;-51
2022/12/26 13:17:01;;;;;;;4.85;2.05;;;9.20;99.90;;;;;;4971257;28;20054;-49
2022/12/26 13:19:39;;;;;;;2.30;1.55;;;9.10;99.90;;;;;;4984967;28;20050;-50
2022/12/26 13:22:15;;;;;;;7.78;1.60;;;9.00;99.90;;;;;;4966892;28;20555;-48
2022/12/26 13:24:48;;;;;;;3.42;1.50;;;8.90;99.90;;;;;;4972046;28;20042;-48
2022/12/26 13:27:24;;;;;;;2.15;1.13;;;8.80;99.90;;;;;;4973568;28;20092;-50
2022/12/26 13:29:52;;;;;;;1.33;1.05;;;8.70;99.90;;;;;;4971649;28;20101;-47
2022/12/26 13:32:29;;;;;;;1.23;1.10;;;8.70;99.90;;;;;;4970173;28;20133;-49
2022/12/26 13:35:01;;;;;;;2.33;1.08;;;8.60;99.90;;;;;;4971874;28;20468;-48
2022/12/26 13:37:31;;;;;;;1.58;0.88;;;8.50;99.90;;;;;;4971014;28;20046;-49
2022/12/26 13:40:14;;;;;;;3.22;1.20;;;8.50;99.90;;;;;;4969560;28;20053;-48
2022/12/26 13:45:47;;;;;;;1.70;1.60;;;8.40;99.90;;;;;;4972373;28;20140;-51
2022/12/26 13:48:17;;;;;;;1.73;1.10;;;8.30;99.90;;;;;;4968654;28;20064;-53
2022/12/26 13:50:51;;;;;;;2.95;1.30;;;8.30;99.90;;;;;;4972845;28;20708;-51
2022/12/26 13:53:23;;;;;;;6.57;2.53;;;8.20;99.90;;;;;;4968750;28;20727;-52
2022/12/26 13:55:51;;;;;;;;;;;8.20;99.90;;;;;;4972526;28;20068;-51
2022/12/26 13:58:36;;;;;;;2.35;1.10;;;8.20;99.90;;;;;;4983773;28;19931;-51
2022/12/26 14:01:48;;;;;;;2.50;1.40;;;8.20;99.90;;;;;;4968430;28;20093;-55
2022/12/26 14:04:51;;;;;;;3.45;1.25;;;8.10;99.90;;;;;;4954209;28;20145;-51
2022/12/26 14:07:52;;;;;;;1.30;1.15;;;8.10;99.90;;;;;;4984978;28;20046;-53
2022/12/26 14:11:03;;;;;;;3.90;1.55;;;8.10;99.90;;;;;;4967236;28;20046;-51
2022/12/26 14:14:06;;;;;;;2.30;1.17;;;8.10;99.90;;;;;;4952472;28;20066;-53
2022/12/26 14:16:55;;;;;;;4.28;1.85;;;8.10;99.90;;;;;;4970509;28;20116;-51
2022/12/26 14:19:40;;;;;;;1.48;1.35;;;8.00;99.90;;;;;;4987936;28;20046;-51
2022/12/26 14:22:16;;;;;;;2.65;1.50;;;8.00;99.90;;;;;;4970825;28;20046;-53
2022/12/26 14:24:58;;;;;;;2.70;1.65;;;8.00;99.90;;;;;;4971601;28;20652;-53
2022/12/26 14:27:54;;;;;;;2.10;1.63;;;7.90;99.90;;;;;;4968337;28;20515;-51
2022/12/26 14:30:33;;;;;;;1.73;1.30;;;7.90;99.90;;;;;;4977101;28;20116;-52
2022/12/26 14:33:26;;;;;;;3.13;1.60;;;7.90;99.90;;;;;;4970837;28;20070;-51
2022/12/26 14:36:23;;;;;;;1.40;1.30;;;7.90;99.90;;;;;;4967301;28;20066;-52
2022/12/26 14:39:33;;;;;;;2.85;1.30;;;7.80;99.90;;;;;;4970284;28;20054;-53
2022/12/26 14:44:57;;;;;;;3.10;1.63;;;7.80;99.90;;;;;;4970221;28;20042;-49
2022/12/26 14:47:41;;;;;;;5.57;1.27;;;7.80;99.90;;;;;;4983240;28;20053;-50
2022/12/26 14:50:36;;;;;;;1.20;1.10;;;7.80;99.90;;;;;;4969059;28;20046;-51
2022/12/26 14:53:28;;;;;;;1.75;1.25;;;7.80;99.90;;;;;;4969556;28;20137;-49
2022/12/26 14:56:14;;;;;;;3.28;1.23;;;7.70;99.90;;;;;;4967422;28;20130;-51
2022/12/26 14:58:48;;;;;;;1.67;1.15;;;7.70;99.90;;;;;;4969173;28;20116;-53
2022/12/26 15:01:16;;;;;;;1.95;1.17;;;7.70;99.90;;;;;;4970009;28;20049;-51
2022/12/26 15:04:25;;;;;;;2.78;1.60;;;7.70;99.90;;;;;;4963603;28;20046;-54
2022/12/26 15:07:01;;;;;;;;;;;7.70;99.90;;;;;;4949816;28;20062;-50
2022/12/26 15:09:40;;;;;;;1.42;1.30;;;7.70;99.90;;;;;;4964758;28;19976;-52
2022/12/26 15:12:55;;;;;;;3.53;2.13;;;7.70;99.90;;;;;;4971126;28;20525;-51
2022/12/26 15:15:57;;;;;;;1.90;1.58;;;7.60;99.90;;;;;;4968653;28;20054;-52
2022/12/26 15:18:36;;;;;;;2.63;1.50;;;7.70;99.90;;;;;;4976549;28;20184;-56
2022/12/26 15:21:28;;;;;;;2.53;1.75;;;7.70;99.90;;;;;;4971023;28;20049;-51
2022/12/26 15:25:08;;;;;;;2.22;1.35;;;7.70;99.90;;;;;;5047299;28;20182;-49
2022/12/26 15:28:16;;;;;;;2.80;1.63;;;7.70;99.90;;;;;;5045932;28;20410;-52
2022/12/26 15:31:04;;;;;;;1.20;0.80;;;7.70;99.90;;;;;;5045369;28;20510;-51
2022/12/26 15:33:39;;;;;;;0.90;0.90;;;7.70;99.90;;;;;;5043648;28;20613;-52
2022/12/26 15:36:17;;;;;;;0.57;0.57;;;7.70;99.90;;;;;;5047147;28;20501;-52
2022/12/26 15:38:54;;;;;;;2.25;0.45;;;7.70;99.90;;;;;;5043978;28;20045;-50
2022/12/26 15:41:45;;;;;;;1.77;0.88;;;7.70;99.90;;;;;;5029375;28;20419;-51
2022/12/26 15:44:27;;;;;;;1.85;1.00;;;7.60;99.90;;;;;;5047221;28;20052;-51
2022/12/26 15:47:27;;;;;;;2.67;1.40;;;7.60;99.90;;;;;;5043642;28;20043;-48
2022/12/26 15:50:19;;;;;;;1.10;0.98;;;7.70;99.90;;;;;;5046939;28;20052;-53
2022/12/26 15:53:20;;;;;;;1.27;1.00;;;7.60;99.90;;;;;;5028203;28;20308;-48